This is the latest recevied weather packets stored in our database for station/object nz4d-1. If no packets are shown the sender has not sent any weather packets the latest 10 day(s).
| Time | Temp. | Humidity | Pressure | Rain* | Wind** | Luminosity | Snow |
|---|---|---|---|---|---|---|---|
| 1777482005 | 21.67° C | 72% | 1013.2 hPa | 0 mm | - | - | - |
| 1777479006 | 22.22° C | 67% | 1013.8 hPa | 0 mm | - | - | - |
| 1777470605 | 18.33° C | 82% | 1015.6 hPa | 0 mm | - | - | - |
| 1777467611 | 15° C | 97% | 1016.3 hPa | 0 mm | - | - | - |
| 1777458605 | 11.11° C | 95% | 1015.2 hPa | 0 mm | - | - | - |
| 1777447806 | 11.11° C | 92% | 1015.7 hPa | 0 mm | - | - | - |
| 1777443004 | 11.11° C | 90% | 1016 hPa | 0 mm | - | - | - |
| 1777441805 | 11.67° C | 89% | 1016.3 hPa | 0 mm | - | - | - |
| 1777432205 | 13.33° C | 85% | 1018.4 hPa | 0 mm | - | - | - |
| 1777430404 | 13.33° C | 84% | 1018.3 hPa | 0 mm | - | - | - |
| 1777423804 | 16.67° C | 75% | 1016.9 hPa | 0 mm | - | - | - |
| 1777423204 | 16.67° C | 74% | 1016.8 hPa | 0 mm | - | - | - |
| 1777421404 | 17.78° C | 69% | 1017.1 hPa | 0 mm | - | - | - |
| 1777420805 | 18.33° C | 66% | 1017.2 hPa | 0 mm | - | - | - |
| 1777408204 | 21.11° C | 53% | 1018.5 hPa | 0 mm | - | - | - |
| 1777405804 | 20.56° C | 53% | 1018.8 hPa | 0 mm | - | - | - |
| 1777402204 | 20° C | 52% | 1019.7 hPa | 0 mm | - | - | - |
| 1777401004 | 20° C | 55% | 1019.8 hPa | 0 mm | - | - | - |
| 1777399204 | 19.44° C | 61% | 1020.3 hPa | 0 mm | - | - | - |
| 1777398004 | 18.89° C | 60% | 1020.3 hPa | 0 mm | - | - | - |
| 1777394405 | 18.33° C | 61% | 1020.1 hPa | 0 mm | - | - | - |
| 1777392005 | 17.22° C | 61% | 1021.4 hPa | 0 mm | - | - | - |
| 1777390806 | 17.22° C | 61% | 1022.2 hPa | 0 mm | - | - | - |
| 1777389606 | 17.22° C | 58% | 1023 hPa | 0 mm | - | - | - |
| 1777381806 | 11.67° C | 85% | 1024.9 hPa | 0 mm | - | - | - |
* Rain latest hour (hover to see other rain measurements)
** Current wind speed in m/s (hover to see current wind gust speed)